Time;durP1;ratioP1;P1;durP2;ratioP2;P2;SDS_P1;SDS_P2;PMS_P1;PMS_P2;Temp;Humidity;BMP_temperature;BMP_pressure;BME280_temperature;BME280_humidity;BME280_pressure;Samples;Min_cycle;Max_cycle;Signal;HPM_P1;HPM_P2
2022/08/20 00:00:22;;;;;;;10.85;7.20;;;20.00;99.90;;;;;;5045414;28;20077;-79
2022/08/20 00:02:53;;;;;;;9.07;6.75;;;19.90;99.90;;;;;;5007641;28;20091;-80
2022/08/20 00:05:32;;;;;;;9.80;6.55;;;19.90;99.90;;;;;;5021293;28;20100;-80
2022/08/20 00:07:59;;;;;;;9.25;6.47;;;19.90;99.90;;;;;;5031303;28;20038;-80
2022/08/20 00:10:26;;;;;;;8.23;6.28;;;19.80;99.90;;;;;;5030927;28;20041;-80
2022/08/20 00:12:52;;;;;;;9.40;6.63;;;19.80;99.90;;;;;;5023619;28;20441;-80
2022/08/20 00:15:21;;;;;;;13.20;5.93;;;19.70;99.90;;;;;;5015829;28;20103;-80
2022/08/20 00:17:51;;;;;;;10.38;6.13;;;19.70;99.90;;;;;;5018187;28;20551;-80
2022/08/20 00:20:18;;;;;;;10.48;5.88;;;19.60;99.90;;;;;;5020831;28;20045;-80
2022/08/20 00:22:44;;;;;;;9.10;5.70;;;19.60;99.90;;;;;;5018402;28;20512;-79
2022/08/20 00:25:11;;;;;;;8.20;5.75;;;19.60;99.90;;;;;;5024790;28;20384;-79
2022/08/20 00:27:36;;;;;;;8.95;6.15;;;19.60;99.90;;;;;;5019616;28;20579;-79
2022/08/20 00:30:05;;;;;;;9.60;5.65;;;19.60;99.90;;;;;;5018426;28;20038;-79
2022/08/20 00:32:31;;;;;;;9.77;5.70;;;19.60;99.90;;;;;;5003955;28;20122;-79
2022/08/20 00:34:57;;;;;;;11.13;5.72;;;19.50;99.90;;;;;;5000657;28;20492;-79
2022/08/20 00:37:22;;;;;;;13.05;6.25;;;19.60;99.90;;;;;;5029172;28;20095;-80
2022/08/20 00:39:48;;;;;;;10.88;5.38;;;19.50;99.90;;;;;;5029993;28;20037;-80
2022/08/20 00:42:14;;;;;;;8.70;5.45;;;19.50;99.90;;;;;;5004078;28;20052;-79
2022/08/20 00:44:46;;;;;;;11.10;5.57;;;19.50;99.90;;;;;;5008158;28;20492;-80
2022/08/20 00:47:12;;;;;;;10.73;5.70;;;19.50;99.90;;;;;;5020503;28;20354;-79
2022/08/20 00:49:38;;;;;;;11.50;5.68;;;19.40;99.90;;;;;;4996290;28;20092;-80
2022/08/20 00:52:16;;;;;;;11.57;5.45;;;19.40;99.90;;;;;;5021236;28;20103;-80
2022/08/20 00:54:50;;;;;;;12.95;5.53;;;19.40;99.90;;;;;;5026373;28;20115;-79
2022/08/20 00:57:16;;;;;;;10.82;5.25;;;19.40;99.90;;;;;;5017810;28;20405;-79
2022/08/20 00:59:42;;;;;;;14.52;6.10;;;19.40;99.90;;;;;;5021905;28;20042;-80
2022/08/20 01:02:12;;;;;;;8.55;4.95;;;19.30;99.90;;;;;;5017512;28;20046;-79
2022/08/20 01:04:38;;;;;;;10.70;5.32;;;19.40;99.90;;;;;;5007390;28;20034;-79
2022/08/20 01:07:05;;;;;;;12.15;5.47;;;19.30;99.90;;;;;;5001229;28;20125;-79
2022/08/20 01:09:33;;;;;;;9.18;4.72;;;19.30;99.90;;;;;;5028983;28;20037;-79
2022/08/20 01:12:00;;;;;;;12.57;5.63;;;19.30;99.90;;;;;;5015320;28;20065;-80
2022/08/20 01:17:06;;;;;;;11.27;5.25;;;19.30;99.90;;;;;;5020490;28;20045;-79
2022/08/20 01:19:40;;;;;;;10.90;5.53;;;19.30;99.90;;;;;;5019789;28;20037;-79
2022/08/20 01:23:25;;;;;;;10.07;5.28;;;19.20;99.90;;;;;;5019107;28;20045;-79
2022/08/20 01:25:06;;;;;;;16.65;5.57;;;19.20;99.90;;;;;;5017167;28;20049;-79
2022/08/20 01:27:33;;;;;;;10.30;5.30;;;19.10;99.90;;;;;;5021201;28;20489;-80
2022/08/20 01:30:01;;;;;;;10.93;5.72;;;19.10;99.90;;;;;;5021466;28;20116;-79
2022/08/20 01:32:27;;;;;;;10.57;5.05;;;19.10;99.90;;;;;;5024999;28;20481;-79
2022/08/20 01:34:53;;;;;;;12.93;5.28;;;19.10;99.90;;;;;;5000504;28;20037;-79
2022/08/20 01:37:19;;;;;;;12.80;5.78;;;19.00;99.90;;;;;;5017362;28;20121;-79
2022/08/20 01:39:44;;;;;;;11.70;5.38;;;19.00;99.90;;;;;;5011116;28;20073;-79
2022/08/20 01:42:24;;;;;;;12.98;5.30;;;19.00;99.90;;;;;;5028031;28;20505;-79
2022/08/20 01:44:51;;;;;;;8.75;4.80;;;18.90;99.90;;;;;;5011758;28;20065;-80
2022/08/20 01:47:27;;;;;;;12.98;5.90;;;18.90;99.90;;;;;;5012268;28;20068;-79
2022/08/20 01:50:12;;;;;;;9.20;4.50;;;18.80;99.90;;;;;;5021820;28;20040;-79
2022/08/20 01:52:59;;;;;;;11.55;5.50;;;18.80;99.90;;;;;;5000538;28;20129;-80
2022/08/20 01:55:28;;;;;;;9.15;5.50;;;18.80;99.90;;;;;;5001701;28;20413;-79
2022/08/20 01:57:54;;;;;;;11.68;5.43;;;18.80;99.90;;;;;;5029019;28;20405;-79
2022/08/20 02:00:21;;;;;;;8.15;5.40;;;18.70;99.90;;;;;;5017287;28;20048;-80
2022/08/20 02:02:46;;;;;;;9.23;5.50;;;18.70;99.90;;;;;;5019822;28;20042;-80
2022/08/20 02:05:12;;;;;;;12.00;5.82;;;18.70;99.90;;;;;;4997758;28;20396;-79
2022/08/20 02:07:39;;;;;;;9.05;4.75;;;18.70;99.90;;;;;;5013324;28;20051;-79
2022/08/20 02:10:06;;;;;;;11.27;5.10;;;18.70;99.90;;;;;;5021978;28;20042;-79
2022/08/20 02:12:32;;;;;;;9.73;5.25;;;18.70;99.90;;;;;;5021683;28;20113;-79
2022/08/20 02:14:57;;;;;;;8.00;4.38;;;18.60;99.90;;;;;;5012251;28;20121;-79
2022/08/20 02:17:24;;;;;;;12.77;5.18;;;18.60;99.90;;;;;;5026734;28;20045;-79
2022/08/20 02:20:04;;;;;;;10.63;5.13;;;18.50;99.90;;;;;;5021078;28;20176;-79
2022/08/20 02:22:30;;;;;;;10.95;4.60;;;18.50;99.90;;;;;;5024377;28;20091;-80
2022/08/20 02:24:56;;;;;;;11.35;5.28;;;18.50;99.90;;;;;;5027472;28;20041;-79
2022/08/20 02:27:22;;;;;;;10.45;5.18;;;18.50;99.90;;;;;;5028235;28;20037;-79
2022/08/20 02:29:48;;;;;;;;;;;18.40;99.90;;;;;;5022632;28;20045;-79
2022/08/20 02:32:14;;;;;;;9.52;5.10;;;18.40;99.90;;;;;;5004335;28;19964;-79
2022/08/20 02:34:40;;;;;;;10.00;5.10;;;18.40;99.90;;;;;;5025040;28;20703;-79
2022/08/20 02:37:06;;;;;;;8.27;4.93;;;18.40;99.90;;;;;;5023973;28;20057;-79
2022/08/20 02:39:32;;;;;;;;;;;18.30;99.90;;;;;;5022889;28;20034;-79
2022/08/20 02:41:58;;;;;;;10.98;5.50;;;18.30;99.90;;;;;;5024424;28;20342;-79
2022/08/20 02:44:23;;;;;;;10.45;5.63;;;18.20;99.90;;;;;;5015718;28;20069;-79
2022/08/20 02:46:49;;;;;;;12.50;5.65;;;18.10;99.90;;;;;;5015801;28;20041;-79
2022/08/20 02:49:16;;;;;;;8.10;5.00;;;18.10;99.90;;;;;;5005422;28;20050;-79
2022/08/20 02:51:43;;;;;;;9.23;5.78;;;18.10;99.90;;;;;;5030619;28;20041;-79
2022/08/20 02:54:09;;;;;;;11.43;5.10;;;18.00;99.90;;;;;;5029779;28;20517;-79
2022/08/20 02:56:35;;;;;;;;;;;18.00;99.90;;;;;;4992400;28;20260;-79
2022/08/20 02:59:01;;;;;;;12.45;5.35;;;17.90;99.90;;;;;;5021275;28;20039;-79
2022/08/20 03:01:27;;;;;;;10.30;5.50;;;17.90;99.90;;;;;;5010591;28;20046;-79
2022/08/20 03:03:58;;;;;;;9.57;5.38;;;17.90;99.90;;;;;;5020732;28;20033;-79
2022/08/20 03:06:26;;;;;;;12.65;5.75;;;17.90;99.90;;;;;;5004393;28;20068;-79
2022/08/20 03:08:52;;;;;;;11.27;5.47;;;17.80;99.90;;;;;;5029222;28;20069;-79
2022/08/20 03:11:19;;;;;;;15.73;5.97;;;17.80;99.90;;;;;;5029657;28;20044;-79
2022/08/20 03:13:45;;;;;;;10.93;5.40;;;17.70;99.90;;;;;;5003270;28;20061;-79
2022/08/20 03:16:11;;;;;;;10.20;5.20;;;17.70;99.90;;;;;;5027217;28;20041;-79
2022/08/20 03:18:40;;;;;;;8.75;5.15;;;17.70;99.90;;;;;;5017383;28;20042;-79
2022/08/20 03:21:07;;;;;;;10.85;5.13;;;17.70;99.90;;;;;;5015148;28;20042;-79
2022/08/20 03:23:34;;;;;;;11.25;4.72;;;17.70;99.90;;;;;;5020489;28;20113;-79
2022/08/20 03:26:01;;;;;;;9.38;4.70;;;17.70;99.90;;;;;;5010104;28;20040;-79
2022/08/20 03:28:27;;;;;;;11.95;5.32;;;17.60;99.90;;;;;;5024648;28;20048;-79
2022/08/20 03:30:55;;;;;;;12.50;5.60;;;17.60;99.90;;;;;;5021586;28;20404;-79
2022/08/20 03:33:21;;;;;;;8.68;4.80;;;17.60;99.90;;;;;;5026819;28;20092;-79
2022/08/20 03:35:47;;;;;;;15.38;5.47;;;17.60;99.90;;;;;;5002894;28;20038;-79
2022/08/20 03:38:15;;;;;;;11.07;5.22;;;17.60;99.90;;;;;;5023071;28;20048;-79
2022/08/20 03:40:41;;;;;;;10.98;5.53;;;17.60;99.90;;;;;;5018985;28;20042;-79
2022/08/20 03:43:07;;;;;;;10.73;5.55;;;17.60;99.90;;;;;;5023321;28;20042;-79
2022/08/20 03:45:34;;;;;;;;;;;17.60;99.90;;;;;;5019209;28;20033;-79
2022/08/20 03:48:01;;;;;;;12.15;5.22;;;17.50;99.90;;;;;;5026765;28;20012;-79
2022/08/20 03:50:29;;;;;;;11.25;4.90;;;17.50;99.90;;;;;;5014841;28;20121;-79
2022/08/20 03:52:56;;;;;;;10.32;4.47;;;17.50;99.90;;;;;;5021334;28;20067;-79
2022/08/20 03:55:23;;;;;;;11.00;4.95;;;17.50;99.90;;;;;;5026025;28;20114;-79
2022/08/20 03:57:58;;;;;;;11.57;4.35;;;17.50;99.90;;;;;;5011130;28;20038;-79
2022/08/20 04:00:28;;;;;;;9.35;4.50;;;17.50;99.90;;;;;;5017906;28;20079;-79
2022/08/20 04:02:56;;;;;;;9.95;4.22;;;17.50;99.90;;;;;;5004202;28;20164;-79
2022/08/20 04:05:26;;;;;;;8.77;4.70;;;17.40;99.90;;;;;;5001425;28;20393;-79
2022/08/20 04:07:52;;;;;;;11.23;4.85;;;17.40;99.90;;;;;;5028582;28;20042;-79
2022/08/20 04:10:18;;;;;;;8.75;4.60;;;17.40;99.90;;;;;;5004598;28;20052;-79
2022/08/20 04:12:44;;;;;;;8.77;4.78;;;17.40;99.90;;;;;;5013213;28;20033;-79
2022/08/20 04:15:13;;;;;;;11.40;4.63;;;17.40;99.90;;;;;;5016601;28;20247;-79
2022/08/20 04:17:41;;;;;;;8.88;4.20;;;17.40;99.90;;;;;;5016801;28;20169;-79
2022/08/20 04:20:10;;;;;;;8.50;4.20;;;17.40;99.90;;;;;;5017901;28;20049;-79
2022/08/20 04:22:35;;;;;;;10.18;4.10;;;17.40;99.90;;;;;;5023307;28;20048;-79
2022/08/20 04:25:03;;;;;;;10.07;4.38;;;17.40;99.90;;;;;;5024024;28;20042;-79
2022/08/20 04:27:31;;;;;;;10.25;4.35;;;17.40;99.90;;;;;;5012554;28;20044;-79
2022/08/20 04:30:02;;;;;;;9.75;4.45;;;17.40;99.90;;;;;;5021804;28;20124;-79
2022/08/20 04:32:28;;;;;;;10.48;4.80;;;17.30;99.90;;;;;;5023017;28;20042;-79
2022/08/20 04:34:53;;;;;;;9.05;4.57;;;17.20;99.90;;;;;;5023301;28;20041;-79
2022/08/20 04:37:21;;;;;;;11.57;4.13;;;17.20;99.90;;;;;;5003793;28;20060;-79
2022/08/20 04:40:52;;;;;;;6.65;3.75;;;17.20;99.90;;;;;;5022380;28;20103;-79
2022/08/20 04:42:37;;;;;;;8.60;3.78;;;17.10;99.90;;;;;;5001723;28;20037;-79
2022/08/20 04:45:05;;;;;;;7.38;3.92;;;17.00;99.90;;;;;;5006088;28;20507;-79
2022/08/20 04:47:31;;;;;;;8.85;4.18;;;17.00;99.90;;;;;;5018254;28;20050;-79
2022/08/20 04:49:59;;;;;;;6.32;3.42;;;17.10;99.90;;;;;;5026559;28;20397;-79
2022/08/20 04:52:26;;;;;;;6.68;3.05;;;17.10;99.90;;;;;;4996748;28;20482;-79
2022/08/20 04:54:55;;;;;;;11.18;3.30;;;17.10;99.90;;;;;;5014805;28;20081;-79
2022/08/20 04:57:22;;;;;;;9.13;3.58;;;17.10;99.90;;;;;;5017171;28;20092;-79
2022/08/20 04:59:50;;;;;;;7.65;3.47;;;17.00;99.90;;;;;;5021823;28;20120;-79
2022/08/20 05:02:17;;;;;;;6.68;3.25;;;17.00;99.90;;;;;;5020172;28;20132;-79
2022/08/20 05:04:43;;;;;;;7.80;3.58;;;17.00;99.90;;;;;;5021169;28;20029;-79
2022/08/20 05:07:10;;;;;;;7.13;3.30;;;17.00;99.90;;;;;;5016439;28;20456;-79
2022/08/20 05:09:36;;;;;;;7.88;3.13;;;17.00;99.90;;;;;;5016063;28;20045;-79
2022/08/20 05:12:02;;;;;;;13.70;3.50;;;16.90;99.90;;;;;;5017629;28;20079;-79
2022/08/20 05:14:28;;;;;;;7.53;3.17;;;16.90;99.90;;;;;;5017548;28;20034;-79
2022/08/20 05:16:56;;;;;;;9.63;3.20;;;16.90;99.90;;;;;;5014611;28;20156;-79
2022/08/20 05:19:22;;;;;;;9.65;3.63;;;16.90;99.90;;;;;;5017245;28;20120;-79
2022/08/20 05:21:52;;;;;;;8.02;3.20;;;16.90;99.90;;;;;;5005055;28;20168;-79
2022/08/20 05:24:20;;;;;;;7.45;2.78;;;16.90;99.90;;;;;;5017130;28;20042;-79
2022/08/20 05:26:46;;;;;;;7.45;3.33;;;16.90;99.90;;;;;;5021072;28;20045;-79
2022/08/20 05:29:11;;;;;;;10.40;3.40;;;16.80;99.90;;;;;;5021500;28;20512;-79
2022/08/20 05:31:38;;;;;;;10.63;2.90;;;16.80;99.90;;;;;;5016474;28;20037;-79
2022/08/20 05:34:09;;;;;;;7.03;3.10;;;16.90;99.90;;;;;;5016900;28;20045;-79
2022/08/20 05:36:39;;;;;;;9.70;3.10;;;16.90;99.90;;;;;;5024334;28;20600;-79
2022/08/20 05:39:05;;;;;;;8.02;2.83;;;16.90;99.90;;;;;;5019150;28;20189;-78
2022/08/20 05:41:30;;;;;;;7.53;3.28;;;16.90;99.90;;;;;;5006016;28;20142;-78
2022/08/20 05:44:00;;;;;;;9.63;3.25;;;16.90;99.90;;;;;;5017330;28;20045;-79
2022/08/20 05:46:27;;;;;;;9.20;2.97;;;16.90;99.90;;;;;;5017409;28;20504;-82
2022/08/20 05:48:53;;;;;;;7.68;3.17;;;16.90;99.90;;;;;;5019536;28;20112;-79
2022/08/20 05:51:18;;;;;;;12.05;3.58;;;17.00;99.90;;;;;;5017738;28;20200;-79
2022/08/20 05:53:44;;;;;;;7.10;3.05;;;17.10;99.90;;;;;;5030317;28;20046;-79
2022/08/20 05:56:10;;;;;;;8.40;3.10;;;17.20;99.90;;;;;;5024114;28;20056;-79
2022/08/20 05:58:36;;;;;;;10.85;3.05;;;17.30;99.90;;;;;;5033450;28;20128;-80
2022/08/20 06:01:02;;;;;;;;;;;17.40;99.90;;;;;;5026655;28;20156;-83
2022/08/20 06:06:12;;;;;;;7.47;2.88;;;17.60;99.90;;;;;;5006519;28;20069;-80
2022/08/20 06:08:38;;;;;;;8.32;2.80;;;17.70;99.90;;;;;;5026927;28;20425;-82
2022/08/20 06:11:05;;;;;;;8.45;2.78;;;17.80;99.90;;;;;;5022577;28;20045;-81
2022/08/20 06:13:30;;;;;;;10.48;2.35;;;18.00;99.90;;;;;;5022551;28;20382;-81
2022/08/20 06:15:56;;;;;;;8.43;2.63;;;18.10;99.90;;;;;;5012513;28;20041;-81
2022/08/20 06:18:23;;;;;;;7.03;2.40;;;18.20;99.90;;;;;;5015531;28;20045;-82
2022/08/20 06:20:49;;;;;;;10.50;2.70;;;18.40;99.90;;;;;;5020760;28;20371;-80
2022/08/20 06:23:15;;;;;;;8.68;2.33;;;18.50;99.90;;;;;;4996641;28;20030;-81
2022/08/20 06:25:41;;;;;;;7.70;2.58;;;18.70;99.90;;;;;;5024283;28;20034;-79
2022/08/20 06:28:07;;;;;;;6.82;2.55;;;18.80;99.90;;;;;;5006942;28;20042;-81
2022/08/20 06:30:34;;;;;;;9.65;2.40;;;18.90;99.90;;;;;;5020693;28;20111;-79
2022/08/20 06:32:59;;;;;;;;;;;19.10;99.90;;;;;;5024864;28;20053;-81
2022/08/20 06:35:25;;;;;;;6.65;1.88;;;19.20;99.90;;;;;;5030794;28;19962;-81
2022/08/20 06:37:51;;;;;;;5.68;1.60;;;19.50;99.90;;;;;;5027412;28;20134;-81
2022/08/20 06:40:21;;;;;;;6.15;1.70;;;20.00;99.90;;;;;;5017251;28;20088;-81
2022/08/20 06:42:48;;;;;;;5.45;1.60;;;20.60;99.90;;;;;;5022728;28;20037;-81
2022/08/20 06:45:17;;;;;;;;;;;21.00;99.90;;;;;;5011520;28;20052;-81
2022/08/20 06:47:45;;;;;;;7.20;1.70;;;21.40;99.90;;;;;;5014354;28;20350;-85
2022/08/20 06:50:18;;;;;;;6.55;1.50;;;21.70;99.90;;;;;;5014081;28;20041;-82
2022/08/20 06:52:46;;;;;;;7.72;1.20;;;22.10;99.90;;;;;;5013990;28;20486;-82
2022/08/20 06:55:13;;;;;;;6.90;1.30;;;22.30;99.90;;;;;;5013613;28;20579;-82
2022/08/20 06:57:40;;;;;;;8.55;1.30;;;22.50;99.90;;;;;;5013529;28;20057;-81
2022/08/20 07:00:09;;;;;;;6.03;1.20;;;22.60;99.90;;;;;;5013747;28;20045;-83
2022/08/20 07:02:36;;;;;;;7.35;1.30;;;22.90;99.90;;;;;;5013209;28;20042;-82
2022/08/20 07:05:04;;;;;;;6.93;1.25;;;23.30;99.90;;;;;;5013343;28;20745;-84
2022/08/20 07:07:29;;;;;;;5.35;1.17;;;23.60;99.90;;;;;;5013513;28;20124;-83
2022/08/20 07:10:06;;;;;;;;;;;23.80;99.90;;;;;;5013754;28;20478;-83
2022/08/20 07:12:33;;;;;;;3.72;0.77;;;24.00;99.90;;;;;;5014018;28;20277;-82
2022/08/20 07:14:59;;;;;;;5.68;0.93;;;24.30;99.90;;;;;;5013281;28;20064;-82
2022/08/20 07:17:25;;;;;;;;;;;24.70;99.90;;;;;;5013912;28;20133;-83
2022/08/20 07:19:50;;;;;;;2.97;0.70;;;24.90;99.90;;;;;;5012935;28;19928;-82
2022/08/20 07:22:16;;;;;;;;;;;25.00;99.90;;;;;;4979866;28;20512;-81
2022/08/20 07:24:43;;;;;;;6.22;0.90;;;25.20;99.90;;;;;;5011413;28;19917;-81
2022/08/20 07:27:08;;;;;;;5.50;0.85;;;25.20;99.90;;;;;;5010568;28;20050;-81
2022/08/20 07:32:33;;;;;;;4.68;0.75;;;25.40;99.90;;;;;;5011686;28;20050;-81
2022/08/20 07:34:59;;;;;;;3.95;0.68;;;25.60;99.90;;;;;;5011393;28;20050;-81
2022/08/20 07:37:25;;;;;;;4.90;0.73;;;25.60;99.90;;;;;;5012937;28;20077;-81
2022/08/20 07:39:51;;;;;;;4.55;0.70;;;25.40;99.90;;;;;;5031931;28;20080;-81
2022/08/20 07:42:17;;;;;;;4.95;0.60;;;24.90;99.90;;;;;;5015758;28;20045;-82
2022/08/20 07:44:43;;;;;;;5.20;0.70;;;24.50;99.90;;;;;;5032037;28;20041;-81
2022/08/20 07:47:09;;;;;;;;;;;24.10;99.90;;;;;;5032420;28;20489;-81
2022/08/20 07:49:40;;;;;;;5.55;0.68;;;24.10;99.90;;;;;;5032122;28;20288;-81
2022/08/20 07:52:06;;;;;;;5.60;0.98;;;24.10;99.90;;;;;;5031929;28;20049;-82
2022/08/20 07:54:33;;;;;;;5.05;0.77;;;24.40;99.90;;;;;;5031537;28;20069;-81
2022/08/20 07:57:02;;;;;;;3.80;1.00;;;24.70;99.90;;;;;;5032000;28;20099;-81
2022/08/20 07:59:28;;;;;;;3.72;0.68;;;25.00;99.90;;;;;;5031673;28;20041;-82
2022/08/20 08:01:54;;;;;;;3.95;0.93;;;25.30;99.90;;;;;;5031628;28;20037;-82
2022/08/20 08:04:20;;;;;;;3.72;0.52;;;25.60;99.90;;;;;;5031757;28;20513;-82
2022/08/20 08:06:45;;;;;;;5.60;0.77;;;25.80;99.70;;;;;;5031693;28;20067;-82
2022/08/20 08:09:13;;;;;;;4.50;0.40;;;26.00;99.50;;;;;;5015090;28;20046;-82
2022/08/20 08:11:41;;;;;;;5.25;1.00;;;26.30;98.60;;;;;;5031621;28;20067;-81
2022/08/20 08:14:09;;;;;;;2.78;0.70;;;26.50;97.60;;;;;;5031188;28;20516;-82
2022/08/20 08:16:36;;;;;;;3.00;0.80;;;26.40;97.50;;;;;;5031607;28;20056;-82
2022/08/20 08:19:05;;;;;;;5.53;0.80;;;26.70;98.40;;;;;;5031321;28;20408;-82
2022/08/20 08:21:31;;;;;;;4.47;0.90;;;26.90;97.00;;;;;;5031590;28;20045;-82
2022/08/20 08:23:57;;;;;;;4.57;0.73;;;27.10;97.60;;;;;;4982656;28;20057;-82
2022/08/20 08:26:24;;;;;;;3.55;0.47;;;27.10;97.50;;;;;;5031590;28;20493;-82
2022/08/20 08:28:50;;;;;;;3.50;0.57;;;27.20;96.60;;;;;;5031110;28;20111;-82
2022/08/20 08:31:15;;;;;;;3.80;0.65;;;27.20;95.90;;;;;;5014750;28;20409;-82
2022/08/20 08:33:42;;;;;;;3.90;0.70;;;27.30;96.60;;;;;;5031002;28;20049;-82
2022/08/20 08:36:10;;;;;;;6.40;0.70;;;27.70;96.60;;;;;;5015304;28;20076;-82
2022/08/20 08:38:40;;;;;;;2.72;0.45;;;27.80;95.30;;;;;;5031098;28;20060;-82
2022/08/20 08:41:31;;;;;;;2.63;0.63;;;28.00;95.80;;;;;;5031501;28;20485;-82
2022/08/20 08:44:06;;;;;;;3.50;0.73;;;28.00;94.20;;;;;;5031149;28;20405;-82
2022/08/20 08:46:43;;;;;;;5.72;0.85;;;28.30;95.50;;;;;;5031031;28;20041;-82
2022/08/20 08:49:13;;;;;;;4.85;0.70;;;28.50;95.60;;;;;;5014780;28;20041;-82
2022/08/20 08:51:46;;;;;;;3.75;0.60;;;28.40;95.10;;;;;;5030671;28;20046;-82
2022/08/20 08:54:19;;;;;;;3.85;0.80;;;28.50;95.00;;;;;;5030810;28;20065;-83
2022/08/20 08:56:44;;;;;;;2.95;0.70;;;28.70;93.70;;;;;;5030970;28;20405;-82
2022/08/20 08:59:10;;;;;;;3.83;0.70;;;28.90;94.70;;;;;;5030835;28;20042;-83
2022/08/20 09:01:47;;;;;;;3.83;0.60;;;29.10;94.50;;;;;;5031100;28;20029;-83
2022/08/20 09:04:15;;;;;;;5.78;0.80;;;29.10;93.80;;;;;;5030856;28;20038;-83
2022/08/20 09:06:42;;;;;;;4.88;0.90;;;29.30;93.70;;;;;;5030766;28;20512;-83
2022/08/20 09:09:26;;;;;;;3.95;0.80;;;29.40;93.20;;;;;;5030495;28;20055;-83
2022/08/20 09:12:00;;;;;;;3.55;0.52;;;29.70;92.20;;;;;;5030560;28;20044;-83
2022/08/20 09:14:26;;;;;;;3.50;0.65;;;30.00;92.70;;;;;;5030856;28;20046;-83
2022/08/20 09:16:51;;;;;;;2.88;0.70;;;30.00;92.60;;;;;;5014385;28;20060;-82
2022/08/20 09:19:17;;;;;;;5.25;0.95;;;29.80;92.90;;;;;;5030443;28;20103;-83
2022/08/20 09:21:43;;;;;;;4.72;0.73;;;29.50;93.80;;;;;;5030504;28;20132;-83
2022/08/20 09:24:08;;;;;;;5.55;0.63;;;29.60;93.50;;;;;;5030801;28;20084;-83
2022/08/20 09:26:35;;;;;;;3.30;0.60;;;29.90;93.60;;;;;;5013384;28;20033;-83
2022/08/20 09:29:00;;;;;;;3.55;0.68;;;30.00;92.50;;;;;;5030318;28;20080;-83
2022/08/20 09:31:26;;;;;;;5.32;0.73;;;29.90;91.30;;;;;;5030330;28;20533;-83
2022/08/20 09:33:52;;;;;;;3.03;0.70;;;29.80;92.40;;;;;;5030147;28;20056;-83
2022/08/20 09:36:18;;;;;;;3.38;0.77;;;29.60;92.30;;;;;;5030492;28;20052;-83
2022/08/20 09:38:44;;;;;;;4.43;0.80;;;29.30;92.20;;;;;;5030174;28;20045;-83
2022/08/20 09:41:09;;;;;;;4.70;0.80;;;29.10;93.20;;;;;;5014036;28;20045;-82
2022/08/20 09:43:35;;;;;;;3.00;0.60;;;29.10;93.00;;;;;;5013928;28;20108;-83
2022/08/20 09:46:01;;;;;;;3.13;0.60;;;29.60;92.90;;;;;;5013668;28;20095;-83
2022/08/20 09:48:26;;;;;;;5.00;0.85;;;29.90;92.80;;;;;;4997874;28;20087;-83
2022/08/20 09:50:52;;;;;;;4.38;1.00;;;30.20;92.50;;;;;;5013819;28;20049;-83
2022/08/20 09:53:19;;;;;;;4.20;0.70;;;30.50;92.50;;;;;;5030308;28;20045;-83
2022/08/20 09:55:50;;;;;;;3.42;0.52;;;30.50;92.20;;;;;;5029973;28;20064;-83
2022/08/20 09:58:37;;;;;;;2.75;0.52;;;30.80;91.20;;;;;;5030114;28;20045;-83
2022/08/20 10:01:08;;;;;;;2.75;0.77;;;31.20;91.90;;;;;;5030316;28;20477;-83
2022/08/20 10:03:34;;;;;;;3.72;0.70;;;31.30;91.40;;;;;;5029702;28;20033;-83
2022/08/20 10:06:00;;;;;;;3.45;0.63;;;31.40;90.70;;;;;;5013803;28;20042;-83
2022/08/20 10:08:26;;;;;;;6.85;0.77;;;31.50;91.60;;;;;;5030172;28;20041;-83
2022/08/20 10:10:51;;;;;;;3.60;0.80;;;31.40;91.50;;;;;;5029916;28;20492;-83
2022/08/20 10:13:17;;;;;;;5.22;0.80;;;31.10;91.80;;;;;;5029982;28;20100;-83
2022/08/20 10:15:43;;;;;;;4.10;0.70;;;30.60;91.20;;;;;;5013593;28;20052;-83
2022/08/20 10:18:09;;;;;;;4.30;0.70;;;30.20;91.20;;;;;;5029693;28;20100;-83
2022/08/20 10:20:34;;;;;;;3.45;0.60;;;29.90;91.40;;;;;;5030002;28;20405;-83
2022/08/20 10:23:00;;;;;;;3.67;0.75;;;30.10;91.60;;;;;;5030006;28;20049;-83
2022/08/20 10:25:27;;;;;;;5.25;1.00;;;30.50;90.80;;;;;;5013396;28;20077;-83
2022/08/20 10:27:54;;;;;;;3.15;0.98;;;30.50;88.00;;;;;;5029815;28;20441;-83
2022/08/20 10:30:20;;;;;;;5.78;0.80;;;30.90;90.10;;;;;;5013375;28;20377;-83
2022/08/20 10:32:45;;;;;;;5.65;0.80;;;31.20;89.70;;;;;;5029881;28;20120;-83
2022/08/20 10:35:11;;;;;;;3.50;0.70;;;31.40;90.70;;;;;;5013433;28;20442;-83
2022/08/20 10:37:37;;;;;;;3.13;0.70;;;31.50;90.20;;;;;;5030694;28;20041;-83
2022/08/20 10:40:03;;;;;;;4.03;0.73;;;31.50;90.00;;;;;;5033323;28;20050;-83
2022/08/20 10:42:29;;;;;;;2.95;0.70;;;31.70;88.20;;;;;;5033352;28;20049;-84
2022/08/20 10:44:55;;;;;;;2.35;0.50;;;31.50;87.10;;;;;;5034423;28;20390;-82
2022/08/20 10:47:27;;;;;;;3.30;0.80;;;31.50;86.60;;;;;;5000719;28;20393;-83
2022/08/20 10:49:54;;;;;;;2.72;0.63;;;31.70;86.80;;;;;;5034369;28;20048;-83
2022/08/20 10:52:21;;;;;;;4.13;0.80;;;31.70;86.50;;;;;;5034376;28;20049;-83
2022/08/20 10:54:47;;;;;;;3.92;0.82;;;31.30;86.90;;;;;;5033914;28;20065;-83
2022/08/20 10:57:17;;;;;;;2.47;0.60;;;31.30;88.80;;;;;;5034392;28;20136;-83
2022/08/20 10:59:45;;;;;;;3.47;0.68;;;31.30;86.40;;;;;;5033060;28;20049;-83
2022/08/20 11:02:11;;;;;;;3.60;0.65;;;31.00;87.90;;;;;;5034212;28;20116;-82
2022/08/20 11:04:39;;;;;;;3.13;0.90;;;30.70;88.50;;;;;;5033097;28;20403;-83
2022/08/20 11:07:18;;;;;;;2.40;0.70;;;30.60;89.40;;;;;;5034099;28;20048;-83
2022/08/20 11:09:45;;;;;;;4.28;1.10;;;30.30;89.60;;;;;;5033569;28;20068;-82
2022/08/20 11:12:11;;;;;;;5.22;1.10;;;29.90;90.00;;;;;;5033061;28;20046;-83
2022/08/20 11:14:37;;;;;;;6.00;0.90;;;29.80;90.50;;;;;;5032678;28;20045;-83
2022/08/20 11:17:03;;;;;;;4.78;0.90;;;29.60;90.40;;;;;;5016101;28;20116;-83
2022/08/20 11:19:28;;;;;;;5.00;1.10;;;29.50;90.00;;;;;;5016141;28;20045;-83
2022/08/20 11:21:55;;;;;;;3.60;0.80;;;29.40;90.50;;;;;;5016005;28;20038;-83
2022/08/20 11:24:20;;;;;;;4.60;1.17;;;29.50;90.70;;;;;;5032552;28;20064;-83
2022/08/20 11:26:49;;;;;;;4.18;0.88;;;29.80;90.60;;;;;;5032034;28;20041;-83
2022/08/20 11:29:15;;;;;;;3.92;0.82;;;30.30;90.60;;;;;;5032468;28;20045;-83
2022/08/20 11:31:40;;;;;;;2.72;0.95;;;30.40;90.30;;;;;;5032659;28;20511;-83
2022/08/20 11:34:06;;;;;;;5.45;0.93;;;30.30;90.40;;;;;;5016013;28;20045;-83
2022/08/20 11:36:32;;;;;;;3.63;0.75;;;30.10;90.50;;;;;;5015860;28;20041;-83
2022/08/20 11:38:58;;;;;;;5.95;1.10;;;29.90;90.80;;;;;;5015604;28;20134;-83
2022/08/20 11:41:23;;;;;;;6.50;1.30;;;29.70;90.90;;;;;;5032532;28;20044;-82
2022/08/20 11:43:49;;;;;;;3.90;0.80;;;29.50;90.80;;;;;;5015966;28;20124;-83
2022/08/20 11:46:15;;;;;;;6.13;0.93;;;29.60;90.90;;;;;;5032146;28;20041;-83
2022/08/20 11:48:40;;;;;;;4.90;1.10;;;29.90;90.90;;;;;;5031588;28;20471;-83
2022/08/20 11:51:06;;;;;;;6.15;1.05;;;30.40;90.80;;;;;;5016486;28;20049;-83
2022/08/20 11:53:32;;;;;;;5.18;1.10;;;31.20;90.00;;;;;;5031960;28;20052;-83
2022/08/20 11:55:58;;;;;;;3.65;0.93;;;31.60;90.20;;;;;;5032068;28;20057;-83
2022/08/20 11:58:24;;;;;;;4.32;1.00;;;31.60;88.40;;;;;;5031821;28;20049;-83
2022/08/20 12:00:50;;;;;;;4.55;0.85;;;31.10;90.20;;;;;;5031933;28;20045;-83
2022/08/20 12:03:15;;;;;;;5.47;0.93;;;30.90;89.30;;;;;;5015318;28;20041;-83
2022/08/20 12:05:43;;;;;;;6.22;1.08;;;30.80;88.80;;;;;;5031655;28;20037;-83
2022/08/20 12:08:10;;;;;;;4.32;1.10;;;31.30;87.60;;;;;;5031314;28;20038;-83
2022/08/20 12:10:37;;;;;;;6.32;1.40;;;31.70;88.70;;;;;;5031707;28;20729;-83
2022/08/20 12:13:04;;;;;;;5.43;0.95;;;31.90;87.40;;;;;;5031811;28;20033;-84
2022/08/20 12:15:29;;;;;;;5.00;0.70;;;32.20;89.10;;;;;;5031417;28;20037;-84
2022/08/20 12:17:55;;;;;;;4.47;1.30;;;32.40;88.30;;;;;;5014894;28;20041;-83
2022/08/20 12:20:22;;;;;;;4.15;0.90;;;32.30;88.00;;;;;;5015377;28;20064;-83
2022/08/20 12:22:48;;;;;;;4.15;0.95;;;31.50;87.90;;;;;;5031160;28;20044;-83
2022/08/20 12:25:14;;;;;;;5.25;0.90;;;30.70;86.30;;;;;;5030862;28;20041;-83
2022/08/20 12:27:41;;;;;;;4.28;1.00;;;30.20;88.00;;;;;;5031556;28;20481;-83
2022/08/20 12:30:11;;;;;;;6.93;1.20;;;30.10;89.20;;;;;;5031228;28;20057;-83
2022/08/20 12:32:37;;;;;;;3.88;1.35;;;30.10;89.90;;;;;;5031365;28;20046;-83
2022/08/20 12:35:06;;;;;;;2.53;0.80;;;30.20;88.80;;;;;;5014555;28;20154;-83
2022/08/20 12:37:31;;;;;;;4.50;0.90;;;30.10;88.70;;;;;;5014521;28;20045;-83
2022/08/20 12:39:59;;;;;;;5.53;1.58;;;30.20;87.00;;;;;;5031109;28;20143;-83
2022/08/20 12:42:26;;;;;;;3.20;0.90;;;30.20;86.70;;;;;;5014736;28;20559;-83
2022/08/20 12:44:52;;;;;;;4.25;0.95;;;30.30;88.90;;;;;;5014608;28;20042;-83
2022/08/20 12:47:24;;;;;;;3.97;1.10;;;30.20;88.40;;;;;;5031163;28;20559;-83
2022/08/20 12:49:53;;;;;;;3.20;0.80;;;30.10;88.20;;;;;;5030613;28;20115;-83
2022/08/20 12:52:20;;;;;;;5.38;0.98;;;29.70;87.70;;;;;;5030929;28;20045;-83
2022/08/20 12:54:46;;;;;;;4.47;1.13;;;29.50;89.00;;;;;;5030697;28;20096;-83
2022/08/20 12:57:22;;;;;;;3.17;0.88;;;29.30;90.10;;;;;;5014433;28;20056;-83